createdAt,value
2018-07-16T00:03:08.638Z,97.40
2018-07-16T00:05:37.554Z,97.30
2018-07-16T00:08:06.547Z,97.40
2018-07-16T00:10:35.396Z,97.60
2018-07-16T00:15:33.037Z,97.40
2018-07-16T00:18:01.931Z,97.50
2018-07-16T00:20:30.767Z,97.40
2018-07-16T00:22:59.652Z,97.40
2018-07-16T00:25:28.479Z,97.50
2018-07-16T00:27:57.344Z,97.50
2018-07-16T00:30:26.197Z,97.50
2018-07-16T00:40:21.400Z,97.50
2018-07-16T00:42:50.257Z,97.50
2018-07-16T00:45:19.140Z,97.50
2018-07-16T00:47:48.023Z,97.60
2018-07-16T00:50:16.859Z,97.90
2018-07-16T00:52:45.734Z,97.60
2018-07-16T00:55:14.588Z,97.50
2018-07-16T01:00:12.236Z,97.70
2018-07-16T01:02:41.062Z,97.70
2018-07-16T01:05:09.912Z,97.70
2018-07-16T01:07:38.760Z,97.80
2018-07-16T01:10:07.626Z,97.80
2018-07-16T01:15:05.351Z,98.30
2018-07-16T01:17:34.382Z,98.00
2018-07-16T01:20:03.248Z,98.00
2018-07-16T01:22:32.164Z,98.00
2018-07-16T01:25:01.062Z,97.90
2018-07-16T01:27:30.184Z,98.10
2018-07-16T01:32:27.803Z,98.10
2018-07-16T01:34:56.688Z,98.10
2018-07-16T01:37:25.531Z,98.10
2018-07-16T01:39:54.393Z,98.00
2018-07-16T01:42:23.239Z,98.00
2018-07-16T01:44:52.191Z,98.00
2018-07-16T01:47:21.067Z,98.00
2018-07-16T01:49:49.912Z,97.90
2018-07-16T01:52:18.812Z,97.90
2018-07-16T01:54:47.668Z,98.00
2018-07-16T01:57:16.524Z,97.90
2018-07-16T01:59:45.403Z,98.10
2018-07-16T02:02:14.267Z,98.00
2018-07-16T02:04:43.164Z,98.20
2018-07-16T02:07:12.024Z,98.40
2018-07-16T02:09:40.863Z,98.70
2018-07-16T02:12:10.175Z,98.20
2018-07-16T02:14:39.038Z,98.50
2018-07-16T02:17:07.919Z,98.50
2018-07-16T02:19:36.779Z,98.30
2018-07-16T02:27:03.188Z,98.30
2018-07-16T02:29:32.099Z,98.40
2018-07-16T02:32:00.939Z,98.30
2018-07-16T02:34:29.808Z,98.20
2018-07-16T02:36:58.675Z,98.00
2018-07-16T02:39:27.528Z,98.30
2018-07-16T02:41:56.387Z,98.50
2018-07-16T02:44:25.280Z,98.40
2018-07-16T02:46:54.219Z,98.20
2018-07-16T02:49:23.068Z,98.30
2018-07-16T02:51:51.918Z,98.10
2018-07-16T02:56:49.597Z,98.10
2018-07-16T02:59:18.430Z,98.00
2018-07-16T03:01:47.347Z,98.00
2018-07-16T03:04:16.187Z,98.00
2018-07-16T03:06:45.355Z,97.90
2018-07-16T03:09:14.179Z,98.10
2018-07-16T03:11:43.027Z,98.10
2018-07-16T03:14:11.951Z,98.20
2018-07-16T03:19:09.568Z,98.20
2018-07-16T03:21:38.431Z,98.20
2018-07-16T03:24:07.320Z,98.30
2018-07-16T03:26:36.195Z,98.20
2018-07-16T03:29:05.069Z,98.20
2018-07-16T03:31:33.979Z,98.30
2018-07-16T03:34:02.876Z,98.10
2018-07-16T03:39:00.464Z,98.50
2018-07-16T03:46:26.836Z,99.00
2018-07-16T03:48:55.674Z,98.90
2018-07-16T03:51:24.540Z,98.80
2018-07-16T03:53:53.425Z,98.70
2018-07-16T03:56:22.291Z,98.70
2018-07-16T04:01:20.207Z,98.70
2018-07-16T04:03:49.107Z,98.60
2018-07-16T04:06:17.983Z,98.80
2018-07-16T04:08:46.867Z,98.80
2018-07-16T04:11:15.749Z,98.70
2018-07-16T04:16:14.180Z,98.40
2018-07-16T04:18:43.036Z,98.20
2018-07-16T04:21:11.895Z,98.40
2018-07-16T04:23:40.804Z,98.40
2018-07-16T04:26:09.688Z,98.40
2018-07-16T04:28:38.613Z,98.40
2018-07-16T04:31:07.495Z,98.40
2018-07-16T04:33:36.376Z,98.40
2018-07-16T04:36:05.332Z,98.40
2018-07-16T04:38:34.200Z,98.30
2018-07-16T04:41:03.064Z,98.30
2018-07-16T04:43:31.939Z,98.50
2018-07-16T04:46:01.089Z,98.60
2018-07-16T04:48:30.029Z,98.80
2018-07-16T04:50:59.107Z,98.60
2018-07-16T04:53:28.411Z,98.60
2018-07-16T04:55:57.330Z,98.80
2018-07-16T04:58:26.881Z,98.50
2018-07-16T05:00:56.004Z,98.40
2018-07-16T05:03:24.956Z,98.40
2018-07-16T05:05:53.872Z,98.30
2018-07-16T05:10:51.554Z,98.10
2018-07-16T05:15:49.253Z,98.50
2018-07-16T05:18:18.101Z,98.80
2018-07-16T05:20:47.209Z,98.70
2018-07-16T05:23:16.203Z,98.80
2018-07-16T05:25:45.064Z,98.50
2018-07-16T05:28:16.047Z,98.50
2018-07-16T05:30:45.679Z,98.40
2018-07-16T05:33:14.645Z,98.20
2018-07-16T05:40:42.461Z,98.20
2018-07-16T05:43:11.384Z,98.10
2018-07-16T05:45:40.971Z,98.10
2018-07-16T05:48:09.844Z,97.80
2018-07-16T05:50:38.691Z,98.20
2018-07-16T05:53:07.570Z,98.20
2018-07-16T05:55:36.523Z,98.20
2018-07-16T05:58:05.623Z,98.00
2018-07-16T06:03:03.217Z,98.20
2018-07-16T06:05:32.081Z,98.10
2018-07-16T06:08:02.929Z,97.90
2018-07-16T06:10:32.308Z,98.00
2018-07-16T06:15:30.789Z,97.60
2018-07-16T06:18:02.793Z,98.00
2018-07-16T06:20:33.763Z,98.00
2018-07-16T06:23:03.790Z,98.10
2018-07-16T06:25:34.094Z,98.20
2018-07-16T06:28:03.263Z,97.20
2018-07-16T06:30:32.577Z,97.40
2018-07-16T06:33:03.055Z,97.70
2018-07-16T06:35:32.808Z,97.80
2018-07-16T06:38:03.568Z,97.80
2018-07-16T06:41:38.901Z,97.70
2018-07-16T06:44:09.913Z,98.00
2018-07-16T06:46:39.450Z,97.70
2018-07-16T06:49:08.343Z,97.40
2018-07-16T06:51:37.192Z,97.10
2018-07-16T06:56:34.884Z,97.40
2018-07-16T06:59:03.827Z,96.70
2018-07-16T07:01:32.699Z,97.00
2018-07-16T07:04:01.556Z,96.70
2018-07-16T07:06:30.831Z,96.60
2018-07-16T07:08:59.699Z,96.50
2018-07-16T07:11:28.640Z,96.40
2018-07-16T07:13:57.544Z,96.80
2018-07-16T07:16:26.404Z,96.80
2018-07-16T07:23:53.409Z,97.00
2018-07-16T07:26:22.307Z,96.90
2018-07-16T07:28:51.184Z,96.60
2018-07-16T07:31:20.088Z,96.50
2018-07-16T07:33:48.958Z,96.50
2018-07-16T07:36:17.863Z,96.60
2018-07-16T07:38:46.999Z,96.40
2018-07-16T07:41:15.840Z,96.50
2018-07-16T07:43:44.720Z,96.50
2018-07-16T07:48:42.423Z,96.30
2018-07-16T07:51:11.291Z,96.30
2018-07-16T07:53:40.197Z,96.30
2018-07-16T07:56:09.084Z,96.40
2018-07-16T07:58:37.967Z,96.70
2018-07-16T08:01:07.551Z,96.60
2018-07-16T08:03:36.520Z,96.10
2018-07-16T08:06:06.546Z,95.60
2018-07-16T08:08:36.765Z,95.50
2018-07-16T08:11:06.260Z,95.70
2018-07-16T08:13:35.200Z,95.20
2018-07-16T08:16:04.224Z,94.40
2018-07-16T08:18:33.167Z,94.10
2018-07-16T08:21:02.120Z,93.10
2018-07-16T08:23:31.094Z,92.70
2018-07-16T08:26:00.385Z,93.00
2018-07-16T08:28:29.387Z,93.40
2018-07-16T08:30:58.301Z,93.00
2018-07-16T08:33:27.216Z,92.80
2018-07-16T08:35:56.135Z,92.70
2018-07-16T08:38:24.998Z,92.70
2018-07-16T08:40:53.936Z,93.00
2018-07-16T08:43:22.884Z,92.80
2018-07-16T08:48:20.511Z,92.50
2018-07-16T08:50:49.907Z,91.80
2018-07-16T08:55:47.667Z,91.70
2018-07-16T08:58:16.533Z,91.30
2018-07-16T09:00:45.419Z,90.70
2018-07-16T09:03:14.296Z,91.90
2018-07-16T09:05:43.227Z,90.30
2018-07-16T09:08:12.048Z,89.60
2018-07-16T09:10:40.861Z,88.60
2018-07-16T09:13:09.762Z,91.00
2018-07-16T09:15:38.644Z,89.70
2018-07-16T09:18:07.536Z,89.90
2018-07-16T09:20:36.420Z,90.50
2018-07-16T09:23:05.284Z,90.20
2018-07-16T09:25:34.257Z,87.90
2018-07-16T09:28:03.121Z,89.90
2018-07-16T09:30:32.003Z,89.20
2018-07-16T09:33:00.861Z,89.30
2018-07-16T09:35:29.739Z,89.40
2018-07-16T09:37:58.635Z,90.10
2018-07-16T09:40:27.582Z,90.00
2018-07-16T09:47:53.983Z,90.10
2018-07-16T09:50:22.880Z,85.60
2018-07-16T09:52:51.785Z,86.40
2018-07-16T09:55:20.682Z,89.70
2018-07-16T09:57:49.546Z,84.30
2018-07-16T10:00:22.952Z,83.30
2018-07-16T10:02:51.830Z,85.90
2018-07-16T10:05:20.696Z,88.30
2018-07-16T10:07:49.582Z,87.10
2018-07-16T10:10:18.447Z,89.30
2018-07-16T10:12:47.340Z,87.00
2018-07-16T10:15:16.311Z,87.00
2018-07-16T10:17:45.233Z,86.40
2018-07-16T10:20:14.131Z,84.40
2018-07-16T10:22:43.093Z,85.10
2018-07-16T10:25:12.009Z,84.20
2018-07-16T10:27:40.881Z,84.00
2018-07-16T10:30:09.763Z,85.20
2018-07-16T10:32:38.648Z,87.20
2018-07-16T10:35:07.540Z,86.00
2018-07-16T10:37:36.463Z,86.80
2018-07-16T10:40:05.424Z,84.80
2018-07-16T10:42:34.320Z,85.60
2018-07-16T10:45:03.184Z,88.80
2018-07-16T10:47:32.088Z,89.00
2018-07-16T10:50:00.938Z,86.20
2018-07-16T10:52:29.845Z,85.60
2018-07-16T10:54:58.743Z,88.80
2018-07-16T10:57:27.611Z,87.20
2018-07-16T10:59:56.529Z,86.40
2018-07-16T11:02:25.367Z,87.90
2018-07-16T11:04:54.215Z,86.40
2018-07-16T11:07:23.351Z,88.30
2018-07-16T11:09:52.191Z,88.40
2018-07-16T11:12:21.163Z,87.10
2018-07-16T11:14:50.112Z,88.00
2018-07-16T11:17:18.990Z,88.40
2018-07-16T11:19:47.860Z,88.60
2018-07-16T11:22:16.666Z,89.10
2018-07-16T11:24:45.539Z,90.00
2018-07-16T11:27:14.416Z,89.30
2018-07-16T11:29:43.236Z,88.50
2018-07-16T11:32:12.127Z,88.00
2018-07-16T11:34:41.007Z,87.60
2018-07-16T11:37:09.861Z,87.40
2018-07-16T11:39:38.740Z,87.90
2018-07-16T11:44:36.431Z,89.00
2018-07-16T11:47:05.385Z,89.20
2018-07-16T11:49:34.293Z,89.10
2018-07-16T11:52:03.171Z,89.60
2018-07-16T11:54:32.019Z,90.10
2018-07-16T11:57:00.942Z,89.20
2018-07-16T11:59:29.864Z,88.70
2018-07-16T12:04:27.532Z,87.00
2018-07-16T12:06:56.864Z,88.30
2018-07-16T12:09:25.765Z,88.80
2018-07-16T12:14:23.353Z,86.30
2018-07-16T12:16:52.223Z,83.60
2018-07-16T12:19:21.099Z,84.30
2018-07-16T12:21:49.982Z,87.00
2018-07-16T12:26:47.608Z,83.20
2018-07-16T12:29:16.494Z,81.60
2018-07-16T12:31:45.399Z,81.90
2018-07-16T12:34:14.270Z,80.60
2018-07-16T12:36:43.200Z,78.20
2018-07-16T12:39:12.045Z,77.90
2018-07-16T12:41:40.959Z,74.70
2018-07-16T12:44:09.804Z,75.80
2018-07-16T12:46:38.647Z,75.90
2018-07-16T12:49:07.521Z,73.70
2018-07-16T12:51:41.155Z,74.00
2018-07-16T12:54:10.094Z,69.80
2018-07-16T12:56:38.952Z,67.90
2018-07-16T12:59:07.816Z,69.50
2018-07-16T13:01:36.686Z,68.10
2018-07-16T13:04:05.548Z,72.30
2018-07-16T13:06:34.495Z,73.10
2018-07-16T13:09:04.184Z,77.90
2018-07-16T13:11:39.885Z,78.30
2018-07-16T13:14:08.735Z,76.40
2018-07-16T13:16:37.612Z,77.40
2018-07-16T13:19:06.472Z,76.80
2018-07-16T13:24:04.079Z,79.00
2018-07-16T13:26:32.945Z,80.90
2018-07-16T13:29:01.858Z,79.60
2018-07-16T13:31:30.719Z,77.80
2018-07-16T13:33:59.558Z,75.00
2018-07-16T13:36:28.516Z,73.60
2018-07-16T13:38:57.424Z,69.90
2018-07-16T13:41:26.304Z,70.00
2018-07-16T13:44:01.987Z,74.00
2018-07-16T13:46:30.994Z,71.90
2018-07-16T13:48:59.727Z,73.50
2018-07-16T13:51:28.656Z,73.80
2018-07-16T13:53:57.519Z,69.20
2018-07-16T13:56:26.396Z,71.40
2018-07-16T13:58:55.508Z,74.00
2018-07-16T14:01:26.154Z,74.00
2018-07-16T14:03:55.236Z,73.90
2018-07-16T14:06:24.172Z,74.40
2018-07-16T14:08:53.027Z,72.40
2018-07-16T14:11:22.661Z,72.60
2018-07-16T14:13:52.000Z,73.50
2018-07-16T14:16:21.276Z,75.60
2018-07-16T14:18:50.404Z,74.60
2018-07-16T14:21:19.328Z,75.60
2018-07-16T14:23:48.203Z,74.00
2018-07-16T14:26:17.086Z,73.30
2018-07-16T14:28:45.945Z,74.60
2018-07-16T14:31:14.846Z,76.30
2018-07-16T14:33:43.707Z,71.70
2018-07-16T14:36:12.844Z,71.20
2018-07-16T14:38:41.720Z,73.70
2018-07-16T14:41:10.636Z,74.80
2018-07-16T14:43:39.547Z,77.70
2018-07-16T14:46:08.630Z,79.20
2018-07-16T14:48:37.507Z,78.40
2018-07-16T14:51:06.453Z,77.00
2018-07-16T14:53:35.365Z,76.90
2018-07-16T14:56:04.874Z,76.20
2018-07-16T14:58:33.731Z,76.10
2018-07-16T15:01:02.643Z,75.90
2018-07-16T15:06:00.251Z,76.10
2018-07-16T15:08:29.172Z,75.00
2018-07-16T15:10:58.008Z,76.40
2018-07-16T15:13:26.902Z,77.90
2018-07-16T15:15:55.780Z,78.50
2018-07-16T15:18:24.640Z,78.90
2018-07-16T15:20:53.996Z,80.70
2018-07-16T15:23:22.724Z,83.30
2018-07-16T15:25:51.827Z,83.50
2018-07-16T15:28:20.752Z,84.70
2018-07-16T15:30:49.720Z,84.60
2018-07-16T15:35:47.492Z,86.50
2018-07-16T15:38:16.377Z,86.00
2018-07-16T15:40:45.228Z,86.60
2018-07-16T15:43:14.079Z,88.70
2018-07-16T15:45:42.975Z,88.10
2018-07-16T15:48:11.882Z,88.40
2018-07-16T15:50:40.803Z,89.10
2018-07-16T15:53:09.649Z,88.10
2018-07-16T15:55:38.550Z,89.20
2018-07-16T15:58:07.424Z,89.10
2018-07-16T16:00:36.325Z,87.70
2018-07-16T16:03:05.348Z,89.10
2018-07-16T16:05:34.244Z,88.50
2018-07-16T16:08:03.251Z,88.20
2018-07-16T16:10:32.187Z,88.00
2018-07-16T16:13:01.101Z,88.30
2018-07-16T16:15:29.984Z,88.70
2018-07-16T16:17:58.851Z,89.10
2018-07-16T16:20:27.781Z,89.70
2018-07-16T16:22:56.699Z,90.40
2018-07-16T16:25:25.561Z,90.10
2018-07-16T16:27:54.449Z,90.60
2018-07-16T16:30:23.435Z,89.90
2018-07-16T16:32:52.417Z,89.70
2018-07-16T16:35:21.274Z,88.90
2018-07-16T16:37:50.224Z,89.10
2018-07-16T16:40:19.586Z,89.60
2018-07-16T16:42:48.476Z,89.10
2018-07-16T16:45:17.399Z,89.90
2018-07-16T16:47:46.581Z,90.30
2018-07-16T16:50:15.512Z,89.60
2018-07-16T16:52:44.491Z,90.20
2018-07-16T16:55:13.458Z,89.50
2018-07-16T16:57:42.344Z,90.00
2018-07-16T17:00:11.293Z,89.70
2018-07-16T17:02:41.420Z,89.10
2018-07-16T17:05:10.899Z,88.90
2018-07-16T17:07:40.126Z,88.80
2018-07-16T17:10:09.111Z,90.10
2018-07-16T17:12:38.444Z,90.20
2018-07-16T17:15:07.560Z,90.00
2018-07-16T17:17:36.752Z,90.40
2018-07-16T17:20:05.668Z,90.00
2018-07-16T17:22:35.044Z,89.90
2018-07-16T17:27:33.883Z,90.20
2018-07-16T17:30:03.052Z,89.80
2018-07-16T17:32:32.625Z,90.40
2018-07-16T17:35:01.945Z,90.40
2018-07-16T17:37:31.166Z,90.30
2018-07-16T17:40:00.198Z,90.40
2018-07-16T17:42:29.574Z,90.00
2018-07-16T17:44:59.035Z,90.20
2018-07-16T17:47:29.177Z,90.10
2018-07-16T17:49:59.473Z,90.00
2018-07-16T17:52:29.360Z,90.10
2018-07-16T17:54:58.641Z,90.40
2018-07-16T17:57:27.964Z,90.20
2018-07-16T17:59:56.904Z,90.80
2018-07-16T18:02:26.221Z,90.40
2018-07-16T18:04:55.116Z,90.20
2018-07-16T18:07:24.789Z,90.40
2018-07-16T18:09:54.132Z,91.10
2018-07-16T18:12:23.315Z,90.50
2018-07-16T18:14:52.672Z,90.50
2018-07-16T18:17:21.912Z,90.70
2018-07-16T18:19:51.072Z,90.60
2018-07-16T18:22:20.004Z,90.40
2018-07-16T18:24:48.876Z,90.60
2018-07-16T18:27:18.211Z,90.70
2018-07-16T18:29:47.432Z,90.30
2018-07-16T18:34:45.336Z,90.90
2018-07-16T18:37:14.627Z,91.10
2018-07-16T18:39:44.672Z,91.20
2018-07-16T18:42:15.322Z,90.80
2018-07-16T18:44:46.925Z,90.70
2018-07-16T18:52:14.084Z,91.60
2018-07-16T18:54:43.313Z,91.30
2018-07-16T18:59:42.532Z,91.90
2018-07-16T19:02:11.881Z,91.90
2018-07-16T19:04:40.974Z,92.10
2018-07-16T19:07:10.472Z,92.20
2018-07-16T19:09:39.466Z,92.50
2018-07-16T19:12:08.492Z,92.20
2018-07-16T19:14:37.896Z,92.50
2018-07-16T19:17:06.827Z,92.30
2018-07-16T19:19:35.700Z,92.30
2018-07-16T19:24:33.461Z,92.90
2018-07-16T19:27:02.987Z,93.00
2018-07-16T19:29:31.907Z,93.20
2018-07-16T19:32:00.831Z,93.60
2018-07-16T19:37:00.866Z,94.30
2018-07-16T19:39:31.253Z,94.70
2018-07-16T19:42:00.240Z,95.10
2018-07-16T19:44:29.695Z,95.40
2018-07-16T19:46:59.145Z,96.30
2018-07-16T19:49:28.428Z,96.80
2018-07-16T19:51:57.545Z,97.20
2018-07-16T19:54:26.498Z,97.80
2018-07-16T19:56:55.404Z,97.90
2018-07-16T19:59:24.344Z,97.90
2018-07-16T20:01:53.231Z,97.60
2018-07-16T20:04:22.160Z,97.40
2018-07-16T20:06:55.361Z,97.40
2018-07-16T20:09:25.238Z,97.40
2018-07-16T20:14:23.361Z,97.70
2018-07-16T20:16:52.379Z,97.60
2018-07-16T20:19:21.247Z,97.50
2018-07-16T20:21:50.219Z,97.40
2018-07-16T20:24:19.076Z,97.30
2018-07-16T20:29:17.208Z,97.20
2018-07-16T20:31:46.040Z,97.20
2018-07-16T20:34:14.908Z,97.40
2018-07-16T20:36:43.784Z,97.30
2018-07-16T20:39:12.726Z,97.50
2018-07-16T20:41:41.558Z,97.60
2018-07-16T20:44:10.472Z,97.60
2018-07-16T20:46:39.499Z,98.20
2018-07-16T20:51:37.124Z,98.10
2018-07-16T20:54:06.663Z,98.00
2018-07-16T20:56:35.567Z,98.00
2018-07-16T20:59:04.663Z,98.00
2018-07-16T21:01:33.583Z,97.90
2018-07-16T21:04:02.445Z,98.00
2018-07-16T21:06:31.316Z,98.00
2018-07-16T21:09:00.171Z,98.00
2018-07-16T21:11:29.011Z,97.90
2018-07-16T21:13:57.883Z,97.90
2018-07-16T21:16:26.791Z,97.90
2018-07-16T21:18:55.642Z,97.90
2018-07-16T21:21:24.647Z,97.90
2018-07-16T21:23:53.524Z,97.90
2018-07-16T21:26:22.427Z,97.90
2018-07-16T21:28:51.308Z,97.90
2018-07-16T21:31:20.167Z,97.80
2018-07-16T21:33:49.179Z,97.80
2018-07-16T21:38:46.749Z,98.10
2018-07-16T21:41:15.714Z,98.10
2018-07-16T21:43:44.550Z,98.10
2018-07-16T21:46:13.399Z,98.20
2018-07-16T21:48:42.266Z,98.10
2018-07-16T21:51:11.148Z,98.20
2018-07-16T21:53:40.168Z,98.00
2018-07-16T21:56:09.036Z,98.10
2018-07-16T21:58:37.962Z,98.20
2018-07-16T22:01:06.904Z,98.20
2018-07-16T22:03:35.787Z,98.20
2018-07-16T22:06:04.661Z,98.10
2018-07-16T22:08:33.550Z,98.20
2018-07-16T22:11:02.407Z,98.10
2018-07-16T22:13:31.248Z,98.00
2018-07-16T22:16:00.367Z,98.30
2018-07-16T22:18:29.229Z,98.10
2018-07-16T22:20:58.100Z,97.90
2018-07-16T22:23:26.979Z,97.70
2018-07-16T22:25:55.845Z,97.90
2018-07-16T22:28:24.742Z,98.10
2018-07-16T22:33:22.299Z,98.00
2018-07-16T22:35:51.167Z,97.90
2018-07-16T22:38:20.000Z,97.90
2018-07-16T22:40:48.927Z,97.80
2018-07-16T22:43:17.760Z,98.00
2018-07-16T22:45:46.616Z,98.10
2018-07-16T22:48:15.552Z,98.10
2018-07-16T22:53:13.188Z,98.30
2018-07-16T22:55:42.023Z,98.40
2018-07-16T23:00:39.684Z,98.10
2018-07-16T23:03:08.564Z,98.20
2018-07-16T23:05:37.404Z,98.20
2018-07-16T23:08:06.296Z,98.20
2018-07-16T23:10:35.242Z,98.20
2018-07-16T23:13:04.136Z,98.30
2018-07-16T23:15:32.979Z,98.40
2018-07-16T23:18:01.831Z,98.40
2018-07-16T23:22:59.684Z,98.50
2018-07-16T23:25:28.535Z,98.50
2018-07-16T23:27:57.452Z,98.40
2018-07-16T23:30:26.339Z,98.20
2018-07-16T23:32:55.182Z,98.50
2018-07-16T23:35:24.056Z,98.80
2018-07-16T23:37:52.930Z,98.80
2018-07-16T23:40:21.803Z,99.00
2018-07-16T23:42:50.644Z,98.50
2018-07-16T23:47:48.268Z,98.80
2018-07-16T23:50:17.194Z,98.60
2018-07-16T23:52:46.039Z,98.60
2018-07-16T23:55:14.867Z,98.60
2018-07-16T23:57:43.708Z,98.60
